createdAt,value
2022-08-17T00:00:34.965Z,47.72
2022-08-17T00:03:06.839Z,48.20
2022-08-17T00:05:39.460Z,47.92
2022-08-17T00:08:07.596Z,47.90
2022-08-17T00:10:36.253Z,47.89
2022-08-17T00:13:07.818Z,48.09
2022-08-17T00:15:35.907Z,48.27
2022-08-17T00:18:04.054Z,48.24
2022-08-17T00:20:53.589Z,48.26
2022-08-17T00:23:21.750Z,48.19
2022-08-17T00:25:50.047Z,47.99
2022-08-17T00:28:18.235Z,48.18
2022-08-17T00:30:52.773Z,48.11
2022-08-17T00:33:25.848Z,48.45
2022-08-17T00:35:56.662Z,48.34
2022-08-17T00:38:26.142Z,48.25
2022-08-17T00:40:59.178Z,48.27
2022-08-17T00:43:32.896Z,48.51
2022-08-17T00:46:02.873Z,48.06
2022-08-17T00:48:32.049Z,48.28
2022-08-17T00:51:07.789Z,48.45
2022-08-17T00:53:39.849Z,48.60
2022-08-17T00:56:11.918Z,48.34
2022-08-17T00:58:40.552Z,48.50
2022-08-17T01:01:11.734Z,48.32
2022-08-17T01:03:40.330Z,48.20
2022-08-17T01:06:10.218Z,48.34
2022-08-17T01:08:40.678Z,48.60
2022-08-17T01:11:09.433Z,48.34
2022-08-17T01:13:41.589Z,48.31
2022-08-17T01:16:17.185Z,48.70
2022-08-17T01:18:47.898Z,48.54
2022-08-17T01:21:25.822Z,48.58
2022-08-17T01:23:55.380Z,48.92
2022-08-17T01:26:24.154Z,48.54
2022-08-17T01:28:55.444Z,49.02
2022-08-17T01:31:29.740Z,48.85
2022-08-17T01:33:59.569Z,48.77
2022-08-17T01:36:30.511Z,48.76
2022-08-17T01:39:00.269Z,49.10
2022-08-17T01:41:29.453Z,48.92
2022-08-17T01:44:02.586Z,48.66
2022-08-17T01:46:34.116Z,48.67
2022-08-17T01:49:06.411Z,49.21
2022-08-17T01:51:35.132Z,49.01
2022-08-17T01:54:07.647Z,48.98
2022-08-17T01:56:39.661Z,49.40
2022-08-17T01:59:07.803Z,48.98
2022-08-17T02:01:37.148Z,48.82
2022-08-17T02:04:07.130Z,49.05
2022-08-17T02:06:52.697Z,49.32
2022-08-17T02:09:25.666Z,49.37
2022-08-17T02:11:54.806Z,49.16
2022-08-17T02:14:25.354Z,49.13
2022-08-17T02:16:54.655Z,49.04
2022-08-17T02:19:23.593Z,49.44
2022-08-17T02:21:53.437Z,49.10
2022-08-17T02:24:58.600Z,49.24
2022-08-17T02:27:13.413Z,49.21
2022-08-17T02:29:41.418Z,49.43
2022-08-17T02:32:22.268Z,48.96
2022-08-17T02:34:56.642Z,49.16
2022-08-17T02:37:24.694Z,49.33
2022-08-17T02:39:54.143Z,49.62
2022-08-17T02:42:27.765Z,49.39
2022-08-17T02:44:55.944Z,49.31
2022-08-17T02:47:24.146Z,49.67
2022-08-17T02:49:54.331Z,49.68
2022-08-17T02:52:42.892Z,49.54
2022-08-17T02:55:16.609Z,49.46
2022-08-17T02:57:45.129Z,49.78
2022-08-17T03:00:17.006Z,49.60
2022-08-17T03:02:45.910Z,49.65
2022-08-17T03:05:16.911Z,49.78
2022-08-17T03:07:44.981Z,49.58
2022-08-17T03:10:15.656Z,49.85
2022-08-17T03:12:44.516Z,49.71
2022-08-17T03:15:15.641Z,49.82
2022-08-17T03:17:44.063Z,49.59
2022-08-17T03:20:13.666Z,49.95
2022-08-17T03:22:47.982Z,49.68
2022-08-17T03:25:25.908Z,49.94
2022-08-17T03:27:54.831Z,49.90
2022-08-17T03:30:23.825Z,49.79
2022-08-17T03:32:54.680Z,49.76
2022-08-17T03:35:24.727Z,49.98
2022-08-17T03:38:00.348Z,50.00
2022-08-17T03:40:34.594Z,50.12
2022-08-17T03:43:21.871Z,50.04
2022-08-17T03:46:10.774Z,49.97
2022-08-17T03:49:13.373Z,50.28
2022-08-17T03:51:58.627Z,50.06
2022-08-17T03:54:44.446Z,50.28
2022-08-17T03:57:14.167Z,50.05
2022-08-17T03:59:42.434Z,50.11
2022-08-17T04:02:14.092Z,50.26
2022-08-17T04:04:42.157Z,50.19
2022-08-17T04:07:10.522Z,50.61
2022-08-17T04:09:38.486Z,50.42
2022-08-17T04:12:07.008Z,50.35
2022-08-17T04:14:51.802Z,50.37
2022-08-17T04:17:22.976Z,50.46
2022-08-17T04:19:50.948Z,50.67
2022-08-17T04:22:30.132Z,50.52
2022-08-17T04:25:03.489Z,50.34
2022-08-17T04:27:31.808Z,50.19
2022-08-17T04:30:01.372Z,50.41
2022-08-17T04:33:09.820Z,50.47
2022-08-17T04:35:22.049Z,50.46
2022-08-17T04:37:50.383Z,50.61
2022-08-17T04:40:37.153Z,50.10
2022-08-17T04:43:08.724Z,50.60
2022-08-17T04:45:55.632Z,50.57
2022-08-17T04:48:34.725Z,50.66
2022-08-17T04:51:07.611Z,50.75
2022-08-17T04:53:35.692Z,50.72
2022-08-17T04:56:04.028Z,50.66
2022-08-17T04:58:32.091Z,50.89
2022-08-17T05:01:01.592Z,50.71
2022-08-17T05:03:29.819Z,50.72
2022-08-17T05:05:57.763Z,50.54
2022-08-17T05:08:25.842Z,50.75
2022-08-17T05:10:53.818Z,50.66
2022-08-17T05:13:23.750Z,50.60
2022-08-17T05:15:56.598Z,50.55
2022-08-17T05:18:26.762Z,50.74
2022-08-17T05:20:55.330Z,50.67
2022-08-17T05:23:26.430Z,50.65
2022-08-17T05:26:17.944Z,50.37
2022-08-17T05:28:57.301Z,50.57
2022-08-17T05:31:27.949Z,50.66
2022-08-17T05:33:57.346Z,50.85
2022-08-17T05:36:41.657Z,51.03
2022-08-17T05:39:15.842Z,50.91
2022-08-17T05:41:47.124Z,50.96
2022-08-17T05:44:15.578Z,50.90
2022-08-17T05:46:49.120Z,50.87
2022-08-17T05:49:24.412Z,51.04
2022-08-17T05:52:14.832Z,50.80
2022-08-17T05:55:03.740Z,51.05
2022-08-17T05:57:44.796Z,50.92
2022-08-17T06:00:30.033Z,50.74
2022-08-17T06:03:23.537Z,50.85
2022-08-17T06:06:02.399Z,51.08
2022-08-17T06:08:35.832Z,50.69
2022-08-17T06:11:14.052Z,50.92
2022-08-17T06:13:58.606Z,50.82
2022-08-17T06:16:34.341Z,50.82
2022-08-17T06:19:11.190Z,50.65
2022-08-17T06:21:44.371Z,50.39
2022-08-17T06:24:28.552Z,50.33
2022-08-17T06:27:01.058Z,50.49
2022-08-17T06:29:38.204Z,50.51
2022-08-17T06:32:09.201Z,50.46
2022-08-17T06:34:40.689Z,50.29
2022-08-17T06:37:30.333Z,50.66
2022-08-17T06:40:12.906Z,50.20
2022-08-17T06:43:02.817Z,50.36
2022-08-17T06:45:39.054Z,50.49
2022-08-17T06:48:12.842Z,50.29
2022-08-17T06:50:45.442Z,50.40
2022-08-17T06:53:22.065Z,50.09
2022-08-17T06:55:59.938Z,50.48
2022-08-17T06:58:31.939Z,49.88
2022-08-17T07:01:06.911Z,50.17
2022-08-17T07:03:40.729Z,49.97
2022-08-17T07:06:13.633Z,49.95
2022-08-17T07:08:52.200Z,50.36
2022-08-17T07:11:28.160Z,50.26
2022-08-17T07:14:07.053Z,50.43
2022-08-17T07:16:41.120Z,50.24
2022-08-17T07:19:10.944Z,50.08
2022-08-17T07:21:48.841Z,50.25
2022-08-17T07:24:39.405Z,50.43
2022-08-17T07:27:11.265Z,50.51
2022-08-17T07:29:43.004Z,50.09
2022-08-17T07:32:18.544Z,50.34
2022-08-17T07:35:11.165Z,50.20
2022-08-17T07:37:41.348Z,50.10
2022-08-17T07:40:35.635Z,49.88
2022-08-17T07:43:21.990Z,50.29
2022-08-17T07:46:24.233Z,50.04
2022-08-17T07:48:54.706Z,50.21
2022-08-17T07:51:29.452Z,50.32
2022-08-17T07:54:13.676Z,50.27
2022-08-17T07:56:47.236Z,50.37
2022-08-17T07:59:23.640Z,50.26
2022-08-17T08:02:05.428Z,50.30
2022-08-17T08:05:06.759Z,50.22
2022-08-17T08:07:29.494Z,50.04
2022-08-17T08:10:09.930Z,50.19
2022-08-17T08:12:42.013Z,50.36
2022-08-17T08:15:17.742Z,50.28
2022-08-17T08:17:53.153Z,50.27
2022-08-17T08:20:37.720Z,49.98
2022-08-17T08:23:35.969Z,49.90
2022-08-17T08:26:18.563Z,50.02
2022-08-17T08:28:55.660Z,49.20
2022-08-17T08:31:32.045Z,49.38
2022-08-17T08:34:58.842Z,49.36
2022-08-17T08:37:17.783Z,49.36
2022-08-17T08:39:59.645Z,49.74
2022-08-17T08:42:35.844Z,49.42
2022-08-17T08:45:13.647Z,49.73
2022-08-17T08:48:05.388Z,49.17
2022-08-17T08:50:43.753Z,49.13
2022-08-17T08:53:21.306Z,49.49
2022-08-17T08:55:55.917Z,49.09
2022-08-17T08:58:41.985Z,49.35
2022-08-17T09:01:22.236Z,49.30
2022-08-17T09:05:10.329Z,49.46
2022-08-17T09:07:39.023Z,49.34
2022-08-17T09:10:14.977Z,49.49
2022-08-17T09:12:49.908Z,48.79
2022-08-17T09:15:22.932Z,48.75
2022-08-17T09:18:59.409Z,49.25
2022-08-17T09:20:52.440Z,49.19
2022-08-17T09:23:37.038Z,48.89
2022-08-17T09:26:11.505Z,49.00
2022-08-17T09:28:45.836Z,49.37
2022-08-17T09:31:20.777Z,48.97
2022-08-17T09:33:51.280Z,49.36
2022-08-17T09:36:29.266Z,49.03
2022-08-17T09:39:02.566Z,49.24
2022-08-17T09:41:38.822Z,48.95
2022-08-17T09:44:25.630Z,49.04
2022-08-17T09:46:57.034Z,48.74
2022-08-17T09:49:31.992Z,48.85
2022-08-17T09:52:04.516Z,48.91
2022-08-17T09:54:39.913Z,48.66
2022-08-17T09:57:31.837Z,48.41
2022-08-17T10:00:18.744Z,48.42
2022-08-17T10:03:24.196Z,48.09
2022-08-17T10:06:00.787Z,48.22
2022-08-17T10:08:40.202Z,47.97
2022-08-17T10:11:33.285Z,47.77
2022-08-17T10:14:36.720Z,48.09
2022-08-17T10:17:04.168Z,47.91
2022-08-17T10:19:39.049Z,47.49
2022-08-17T10:22:41.472Z,47.71
2022-08-17T10:25:48.613Z,47.68
2022-08-17T10:28:25.802Z,47.08
2022-08-17T10:31:30.834Z,47.06
2022-08-17T10:34:00.136Z,46.80
2022-08-17T10:36:43.206Z,46.92
2022-08-17T10:39:25.940Z,46.40
2022-08-17T10:42:00.600Z,46.25
2022-08-17T10:44:45.576Z,46.46
2022-08-17T10:47:17.172Z,46.44
2022-08-17T10:49:53.561Z,46.64
2022-08-17T10:52:50.009Z,46.38
2022-08-17T10:55:21.218Z,46.38
2022-08-17T10:57:51.218Z,46.50
2022-08-17T11:01:12.685Z,46.19
2022-08-17T11:03:53.494Z,46.06
2022-08-17T11:06:31.373Z,45.92
2022-08-17T11:09:19.816Z,46.10
2022-08-17T11:12:07.657Z,45.89
2022-08-17T11:14:49.640Z,46.31
2022-08-17T11:17:37.548Z,46.20
2022-08-17T11:20:22.340Z,45.68
2022-08-17T11:23:21.793Z,45.74
2022-08-17T11:25:54.252Z,46.01
2022-08-17T11:28:28.037Z,45.82
2022-08-17T11:30:59.361Z,45.88
2022-08-17T11:34:04.763Z,45.83
2022-08-17T11:37:11.051Z,45.98
2022-08-17T11:39:55.442Z,46.39
2022-08-17T11:42:40.941Z,46.77
2022-08-17T11:45:33.765Z,47.11
2022-08-17T11:48:31.381Z,46.88
2022-08-17T11:51:24.872Z,46.81
2022-08-17T11:57:02.249Z,47.18
2022-08-17T11:59:59.446Z,47.39
2022-08-17T12:02:35.800Z,46.88
2022-08-17T12:05:26.129Z,46.88
2022-08-17T12:08:06.539Z,47.09
2022-08-17T12:10:37.426Z,46.94
2022-08-17T12:13:11.515Z,47.05
2022-08-17T12:15:45.046Z,47.13
2022-08-17T12:18:22.528Z,46.77
2022-08-17T12:21:06.404Z,47.56
2022-08-17T12:23:44.138Z,47.48
2022-08-17T12:26:19.381Z,47.56
2022-08-17T12:28:49.795Z,47.54
2022-08-17T12:31:22.812Z,47.54
2022-08-17T12:33:52.752Z,47.53
2022-08-17T12:36:24.991Z,46.99
2022-08-17T12:39:13.899Z,47.41
2022-08-17T12:41:46.819Z,47.45
2022-08-17T12:44:18.154Z,47.49
2022-08-17T12:46:53.230Z,47.30
2022-08-17T12:49:27.449Z,47.21
2022-08-17T12:52:04.268Z,47.09
2022-08-17T12:54:41.733Z,47.69
2022-08-17T12:57:15.683Z,47.52
2022-08-17T12:59:46.606Z,47.85
2022-08-17T13:02:35.838Z,47.34
2022-08-17T13:05:08.246Z,47.23
2022-08-17T13:07:43.107Z,46.35
2022-08-17T13:10:18.404Z,47.01
2022-08-17T13:12:47.965Z,47.25
2022-08-17T13:15:22.234Z,46.77
2022-08-17T13:17:58.533Z,47.07
2022-08-17T13:20:28.135Z,46.87
2022-08-17T13:22:58.729Z,46.81
2022-08-17T13:25:29.357Z,47.29
2022-08-17T13:27:58.026Z,47.22
2022-08-17T13:30:32.607Z,47.18
2022-08-17T13:33:04.809Z,47.08
2022-08-17T13:35:47.132Z,47.18
2022-08-17T13:38:37.559Z,46.90
2022-08-17T13:41:06.408Z,47.53
2022-08-17T13:43:48.568Z,47.25
2022-08-17T13:46:22.698Z,47.47
2022-08-17T13:49:00.259Z,47.21
2022-08-17T13:51:33.780Z,47.12
2022-08-17T13:54:09.523Z,47.24
2022-08-17T13:56:41.710Z,47.23
2022-08-17T13:59:13.684Z,46.73
2022-08-17T14:01:44.086Z,46.97
2022-08-17T14:04:14.415Z,46.71
2022-08-17T14:06:54.087Z,46.70
2022-08-17T14:09:24.556Z,47.03
2022-08-17T14:11:54.230Z,47.12
2022-08-17T14:14:23.678Z,47.05
2022-08-17T14:16:52.131Z,46.95
2022-08-17T14:19:21.943Z,46.78
2022-08-17T14:21:56.460Z,46.49
2022-08-17T14:24:27.482Z,46.36
2022-08-17T14:26:55.918Z,46.20
2022-08-17T14:29:26.014Z,46.49
2022-08-17T14:31:54.334Z,46.63
2022-08-17T14:34:23.401Z,46.17
2022-08-17T14:36:53.232Z,46.60
2022-08-17T14:39:21.673Z,46.55
2022-08-17T14:41:50.166Z,45.73
2022-08-17T14:44:18.286Z,45.63
2022-08-17T14:46:47.949Z,46.07
2022-08-17T14:49:16.148Z,45.92
2022-08-17T14:51:44.770Z,45.06
2022-08-17T14:54:32.952Z,45.75
2022-08-17T14:57:22.642Z,46.13
2022-08-17T14:59:54.253Z,46.15
2022-08-17T15:02:29.307Z,45.75
2022-08-17T15:05:00.129Z,45.96
2022-08-17T15:07:31.165Z,46.48
2022-08-17T15:10:02.113Z,45.98
2022-08-17T15:12:34.304Z,46.30
2022-08-17T15:15:04.766Z,45.99
2022-08-17T15:17:44.837Z,46.66
2022-08-17T15:20:15.882Z,46.75
2022-08-17T15:22:46.196Z,45.17
2022-08-17T15:25:15.979Z,45.84
2022-08-17T15:27:44.076Z,46.10
2022-08-17T15:30:13.581Z,46.10
2022-08-17T15:32:50.798Z,46.25
2022-08-17T15:35:27.349Z,46.74
2022-08-17T15:38:07.977Z,46.19
2022-08-17T15:40:39.209Z,46.30
2022-08-17T15:43:07.760Z,45.48
2022-08-17T15:45:35.770Z,45.98
2022-08-17T15:48:04.262Z,45.72
2022-08-17T15:50:32.496Z,46.23
2022-08-17T15:53:02.062Z,46.31
2022-08-17T15:55:31.962Z,46.22
2022-08-17T15:58:01.708Z,45.47
2022-08-17T16:00:29.979Z,45.80
2022-08-17T16:03:44.679Z,45.17
2022-08-17T16:05:48.918Z,45.78
2022-08-17T16:08:21.154Z,45.43
2022-08-17T16:10:50.176Z,44.57
2022-08-17T16:13:20.411Z,45.05
2022-08-17T16:15:56.949Z,44.99
2022-08-17T16:18:30.968Z,45.23
2022-08-17T16:21:20.488Z,44.97
2022-08-17T16:23:49.534Z,44.93
2022-08-17T16:26:18.013Z,45.00
2022-08-17T16:28:47.808Z,45.07
2022-08-17T16:31:16.616Z,45.18
2022-08-17T16:34:16.163Z,45.55
2022-08-17T16:36:34.060Z,45.14
2022-08-17T16:39:01.994Z,45.61
2022-08-17T16:41:45.151Z,45.22
2022-08-17T16:44:15.732Z,45.14
2022-08-17T16:46:45.802Z,45.22
2022-08-17T16:49:35.441Z,45.61
2022-08-17T16:52:04.126Z,45.18
2022-08-17T16:54:32.824Z,45.29
2022-08-17T16:57:00.773Z,45.22
2022-08-17T16:59:41.042Z,45.26
2022-08-17T17:02:15.370Z,45.41
2022-08-17T17:04:51.563Z,45.63
2022-08-17T17:07:49.618Z,45.85
2022-08-17T17:10:19.929Z,45.48
2022-08-17T17:13:02.369Z,45.54
2022-08-17T17:15:46.360Z,45.52
2022-08-17T17:18:15.441Z,45.95
2022-08-17T17:20:48.929Z,45.82
2022-08-17T17:23:31.297Z,45.47
2022-08-17T17:26:10.975Z,45.98
2022-08-17T17:28:46.363Z,46.08
2022-08-17T17:31:19.259Z,45.99
2022-08-17T17:33:51.119Z,45.77
2022-08-17T17:36:26.775Z,45.84
2022-08-17T17:38:57.260Z,45.95
2022-08-17T17:41:31.418Z,45.67
2022-08-17T17:44:03.748Z,45.73
2022-08-17T17:46:37.957Z,46.21
2022-08-17T17:49:07.012Z,45.81
2022-08-17T17:52:08.612Z,46.01
2022-08-17T17:54:52.272Z,45.89
2022-08-17T17:57:29.769Z,46.05
2022-08-17T18:00:06.963Z,46.32
2022-08-17T18:02:57.247Z,46.45
2022-08-17T18:05:36.359Z,46.24
2022-08-17T18:08:34.043Z,46.49
2022-08-17T18:11:14.927Z,46.04
2022-08-17T18:14:05.727Z,46.03
2022-08-17T18:16:35.873Z,46.45
2022-08-17T18:19:06.176Z,46.18
2022-08-17T18:21:38.089Z,45.99
2022-08-17T18:24:10.404Z,46.17
2022-08-17T18:26:46.366Z,46.49
2022-08-17T18:29:31.351Z,46.05
2022-08-17T18:32:23.817Z,46.05
2022-08-17T18:34:55.944Z,45.98
2022-08-17T18:37:45.919Z,46.29
2022-08-17T18:40:32.822Z,46.49
2022-08-17T18:43:06.067Z,45.93
2022-08-17T18:45:38.465Z,46.35
2022-08-17T18:48:18.188Z,45.99
2022-08-17T18:50:47.685Z,45.99
2022-08-17T18:53:36.879Z,45.89
2022-08-17T18:56:32.464Z,46.18
2022-08-17T18:59:10.995Z,46.11
2022-08-17T19:01:53.621Z,46.13
2022-08-17T19:04:34.035Z,46.47
2022-08-17T19:07:12.981Z,46.34
2022-08-17T19:09:47.008Z,46.36
2022-08-17T19:12:27.822Z,46.46
2022-08-17T19:14:58.066Z,46.55
2022-08-17T19:17:33.363Z,46.49
2022-08-17T19:20:06.361Z,46.55
2022-08-17T19:22:46.585Z,46.57
2022-08-17T19:25:19.783Z,46.57
2022-08-17T19:27:57.738Z,46.79
2022-08-17T19:30:27.838Z,46.47
2022-08-17T19:32:57.766Z,46.57
2022-08-17T19:35:31.899Z,46.72
2022-08-17T19:38:13.232Z,46.88
2022-08-17T19:41:00.572Z,46.75
2022-08-17T19:43:47.939Z,46.71
2022-08-17T19:46:26.138Z,46.89
2022-08-17T19:49:02.646Z,46.88
2022-08-17T19:51:40.570Z,46.95
2022-08-17T19:54:20.486Z,46.98
2022-08-17T19:56:56.575Z,47.67
2022-08-17T19:59:36.374Z,47.85
2022-08-17T20:02:20.771Z,48.04
2022-08-17T20:04:51.681Z,48.66
2022-08-17T20:07:25.125Z,48.71
2022-08-17T20:10:01.246Z,48.60
2022-08-17T20:12:35.002Z,48.33
2022-08-17T20:15:09.544Z,48.34
2022-08-17T20:17:43.248Z,47.82
2022-08-17T20:20:27.843Z,48.22
2022-08-17T20:23:03.813Z,47.64
2022-08-17T20:25:43.389Z,47.63
2022-08-17T20:28:21.083Z,47.63
2022-08-17T20:30:51.825Z,47.49
2022-08-17T20:33:29.929Z,47.84
2022-08-17T20:36:06.304Z,47.90
2022-08-17T20:38:44.395Z,47.65
2022-08-17T20:41:16.800Z,47.75
2022-08-17T20:44:04.626Z,47.63
2022-08-17T20:46:56.545Z,47.62
2022-08-17T20:49:28.864Z,47.50
2022-08-17T20:52:03.713Z,47.40
2022-08-17T20:54:45.463Z,47.84
2022-08-17T20:57:47.398Z,48.07
2022-08-17T21:00:44.596Z,48.46
2022-08-17T21:03:52.231Z,48.54
2022-08-17T21:06:26.005Z,48.71
2022-08-17T21:08:57.959Z,48.30
2022-08-17T21:12:03.925Z,48.52
2022-08-17T21:14:42.926Z,48.15
2022-08-17T21:17:38.726Z,48.13
2022-08-17T21:20:16.261Z,48.45
2022-08-17T21:22:58.041Z,48.21
2022-08-17T21:25:44.860Z,48.09
2022-08-17T21:28:22.804Z,48.15
2022-08-17T21:31:08.301Z,48.09
2022-08-17T21:33:40.082Z,48.20
2022-08-17T21:36:25.446Z,48.08
2022-08-17T21:39:01.443Z,47.84
2022-08-17T21:41:33.805Z,47.78
2022-08-17T21:44:21.628Z,47.94
2022-08-17T21:46:53.577Z,47.54
2022-08-17T21:49:28.627Z,47.95
2022-08-17T21:51:57.791Z,47.62
2022-08-17T21:54:31.765Z,47.61
2022-08-17T21:57:02.348Z,47.66
2022-08-17T21:59:32.957Z,47.74
2022-08-17T22:02:05.670Z,47.39
2022-08-17T22:04:35.469Z,47.67
2022-08-17T22:07:05.807Z,47.45
2022-08-17T22:09:36.775Z,47.68
2022-08-17T22:12:08.897Z,47.72
2022-08-17T22:14:53.471Z,47.52
2022-08-17T22:17:25.689Z,47.40
2022-08-17T22:19:56.448Z,47.25
2022-08-17T22:22:28.869Z,47.55
2022-08-17T22:24:59.078Z,47.22
2022-08-17T22:27:52.403Z,47.38
2022-08-17T22:30:33.185Z,47.34
2022-08-17T22:33:37.299Z,47.27
2022-08-17T22:36:14.435Z,47.17
2022-08-17T22:38:43.812Z,47.25
2022-08-17T22:41:32.072Z,47.43
2022-08-17T22:44:07.523Z,47.50
2022-08-17T22:46:41.148Z,47.38
2022-08-17T22:49:10.538Z,47.18
2022-08-17T22:51:38.604Z,47.08
2022-08-17T22:54:37.837Z,47.04
2022-08-17T22:57:24.077Z,47.35
2022-08-17T22:59:54.932Z,47.26
2022-08-17T23:02:26.201Z,47.17
2022-08-17T23:05:16.935Z,47.11
2022-08-17T23:07:47.138Z,47.39
2022-08-17T23:10:16.189Z,47.09
2022-08-17T23:12:44.232Z,46.97
2022-08-17T23:15:16.742Z,47.42
2022-08-17T23:17:45.386Z,47.36
2022-08-17T23:20:17.593Z,47.31
2022-08-17T23:22:51.985Z,47.28
2022-08-17T23:25:27.911Z,47.18
2022-08-17T23:27:57.358Z,47.21
2022-08-17T23:30:28.480Z,47.17
2022-08-17T23:32:56.918Z,46.89
2022-08-17T23:35:40.461Z,46.64
2022-08-17T23:38:10.413Z,47.31
2022-08-17T23:40:39.923Z,47.01
2022-08-17T23:43:17.644Z,47.22
2022-08-17T23:45:54.878Z,46.90
2022-08-17T23:48:28.455Z,46.82
2022-08-17T23:51:09.760Z,46.91
2022-08-17T23:53:42.288Z,46.93
2022-08-17T23:56:11.786Z,46.65
2022-08-17T23:58:42.115Z,46.70
